EJU54HM LPPT-ELLX
Flight info
| Callsign | EJU54HM |
|---|---|
| Flight time | 2h 19m |
| Altitude | 36000 |
| Route | IXIDA DCT TOSDI DCT ZMR DCT NUBLO DCT RONSI DCT DELOG DCT PEXOD DCT DIDIG DCT TIRAV DCT ERJAZ DCT PIWIZ DCT TSU UM163 LEQOS DCT CTL DCT MMD |
| Aircraft | A320/M-SDE2E3FGHIJ1RWXYZ/LB1 |
Departure
| Time | 2026-04-29 11:08 |
|---|---|
| Airport | Lisbon Humberto Delgado Airport (LPPT) |
Arrival
| Time | 2026-04-29 13:28 |
|---|---|
| Airport | Luxembourg-Findel International Airport (ELLX) |
| Time | Latitude | Longitude | Altitude | Speed | Heading |
|---|---|---|---|---|---|
| 2026-04-29 10:46 | 38.76938 | -9.13066 | 337 ft | 0 kts | 78° |
| 2026-04-29 10:53 | 38.76933 | -9.13096 | 337 ft | 4 kts | 78° |
| 2026-04-29 10:53 | 38.76929 | -9.13122 | 337 ft | 4 kts | 66° |
| 2026-04-29 10:53 | 38.76914 | -9.13145 | 338 ft | 4 kts | 8° |
| 2026-04-29 10:54 | 38.76890 | -9.13142 | 339 ft | 3 kts | 347° |
| 2026-04-29 10:54 | 38.76886 | -9.13140 | 339 ft | 0 kts | 347° |
| 2026-04-29 10:57 | 38.76894 | -9.13143 | 339 ft | 3 kts | 347° |
| 2026-04-29 10:57 | 38.76931 | -9.13153 | 339 ft | 8 kts | 347° |
| 2026-04-29 10:57 | 38.77006 | -9.13173 | 338 ft | 14 kts | 348° |
| 2026-04-29 10:57 | 38.77126 | -9.13205 | 338 ft | 21 kts | 348° |
| 2026-04-29 10:58 | 38.77288 | -9.13249 | 338 ft | 23 kts | 349° |
| 2026-04-29 10:58 | 38.77432 | -9.13280 | 338 ft | 21 kts | 348° |
| 2026-04-29 10:58 | 38.77577 | -9.13318 | 338 ft | 22 kts | 353° |
| 2026-04-29 10:58 | 38.77729 | -9.13337 | 340 ft | 21 kts | 346° |
| 2026-04-29 10:59 | 38.77854 | -9.13371 | 348 ft | 17 kts | 348° |
| 2026-04-29 10:59 | 38.77956 | -9.13399 | 353 ft | 11 kts | 348° |
| 2026-04-29 10:59 | 38.77987 | -9.13407 | 355 ft | 0 kts | 348° |
| 2026-04-29 10:59 | 38.77990 | -9.13408 | 355 ft | 1 kts | 348° |
| 2026-04-29 11:00 | 38.78016 | -9.13415 | 357 ft | 6 kts | 348° |
| 2026-04-29 11:00 | 38.78037 | -9.13421 | 358 ft | 0 kts | 348° |
| 2026-04-29 11:02 | 38.78039 | -9.13421 | 358 ft | 2 kts | 348° |
| 2026-04-29 11:02 | 38.78091 | -9.13435 | 360 ft | 13 kts | 348° |
| 2026-04-29 11:03 | 38.78214 | -9.13468 | 364 ft | 23 kts | 348° |
| 2026-04-29 11:03 | 38.78391 | -9.13515 | 365 ft | 27 kts | 348° |
| 2026-04-29 11:03 | 38.78526 | -9.13552 | 370 ft | 14 kts | 348° |
| 2026-04-29 11:03 | 38.78608 | -9.13573 | 372 ft | 10 kts | 356° |
| 2026-04-29 11:04 | 38.78681 | -9.13548 | 369 ft | 14 kts | 22° |
| 2026-04-29 11:04 | 38.78780 | -9.13495 | 361 ft | 18 kts | 23° |
| 2026-04-29 11:04 | 38.78911 | -9.13424 | 352 ft | 23 kts | 22° |
| 2026-04-29 11:04 | 38.79054 | -9.13350 | 346 ft | 24 kts | 23° |
| 2026-04-29 11:05 | 38.79208 | -9.13266 | 347 ft | 24 kts | 22° |
| 2026-04-29 11:05 | 38.79361 | -9.13184 | 350 ft | 24 kts | 22° |
| 2026-04-29 11:05 | 38.79492 | -9.13113 | 356 ft | 18 kts | 23° |
| 2026-04-29 11:05 | 38.79600 | -9.13056 | 360 ft | 15 kts | 22° |
| 2026-04-29 11:06 | 38.79683 | -9.13011 | 360 ft | 10 kts | 22° |
| 2026-04-29 11:06 | 38.79746 | -9.12977 | 360 ft | 9 kts | 24° |
| 2026-04-29 11:06 | 38.79774 | -9.12902 | 355 ft | 12 kts | 99° |
| 2026-04-29 11:06 | 38.79743 | -9.12808 | 352 ft | 11 kts | 114° |
| 2026-04-29 11:07 | 38.79697 | -9.12755 | 351 ft | 9 kts | 184° |
| 2026-04-29 11:07 | 38.79646 | -9.12782 | 351 ft | 7 kts | 203° |
| 2026-04-29 11:07 | 38.79607 | -9.12804 | 351 ft | 7 kts | 203° |
| 2026-04-29 11:07 | 38.79439 | -9.12893 | 352 ft | 58 kts | 203° |
| 2026-04-29 11:08 | 38.78868 | -9.13199 | 356 ft | 118 kts | 202° |
| 2026-04-29 11:08 | 38.77953 | -9.13688 | 365 ft | 165 kts | 202° |
| 2026-04-29 11:08 | 38.76839 | -9.14272 | 806 ft | 174 kts | 203° |
| 2026-04-29 11:08 | 38.75719 | -9.14879 | 1498 ft | 175 kts | 203° |
| 2026-04-29 11:09 | 38.74592 | -9.15485 | 2093 ft | 180 kts | 203° |
| 2026-04-29 11:09 | 38.73364 | -9.16143 | 2394 ft | 203 kts | 203° |
| 2026-04-29 11:09 | 38.71981 | -9.16884 | 2686 ft | 228 kts | 203° |
| 2026-04-29 11:09 | 38.70440 | -9.17708 | 3094 ft | 252 kts | 203° |
| 2026-04-29 11:10 | 38.66812 | -9.19748 | 4680 ft | 269 kts | 214° |
| 2026-04-29 11:10 | 38.65558 | -9.21521 | 5463 ft | 274 kts | 244° |
| 2026-04-29 11:10 | 38.65142 | -9.23890 | 6213 ft | 278 kts | 274° |
| 2026-04-29 11:11 | 38.65650 | -9.26277 | 6959 ft | 282 kts | 292° |
| 2026-04-29 11:11 | 38.66528 | -9.28542 | 7686 ft | 286 kts | 307° |
| 2026-04-29 11:11 | 38.68013 | -9.30236 | 8374 ft | 291 kts | 331° |
| 2026-04-29 11:11 | 38.69949 | -9.30997 | 9047 ft | 295 kts | 356° |
| 2026-04-29 11:12 | 38.71977 | -9.30632 | 9689 ft | 300 kts | 22° |
| 2026-04-29 11:12 | 38.73801 | -9.29296 | 10267 ft | 307 kts | 33° |
| 2026-04-29 11:12 | 38.75640 | -9.27737 | 10401 ft | 328 kts | 34° |
| 2026-04-29 11:12 | 38.77592 | -9.26057 | 10628 ft | 344 kts | 34° |
| 2026-04-29 11:13 | 38.79597 | -9.24324 | 11124 ft | 350 kts | 34° |
| 2026-04-29 11:13 | 38.81633 | -9.22566 | 11676 ft | 354 kts | 34° |
| 2026-04-29 11:13 | 38.83690 | -9.20797 | 12212 ft | 358 kts | 34° |
| 2026-04-29 11:13 | 38.85593 | -9.18795 | 12717 ft | 361 kts | 45° |
| 2026-04-29 11:14 | 38.87317 | -9.16377 | 13225 ft | 364 kts | 48° |
| 2026-04-29 11:14 | 38.88987 | -9.13971 | 13701 ft | 367 kts | 48° |
| 2026-04-29 11:14 | 38.92384 | -9.09062 | 14606 ft | 373 kts | 48° |
| 2026-04-29 11:15 | 38.94114 | -9.06567 | 15034 ft | 376 kts | 48° |
| 2026-04-29 11:15 | 38.95860 | -9.04050 | 15444 ft | 379 kts | 48° |
| 2026-04-29 11:15 | 38.97620 | -9.01513 | 15837 ft | 381 kts | 48° |
| 2026-04-29 11:15 | 38.99389 | -8.98961 | 16222 ft | 384 kts | 48° |
| 2026-04-29 11:16 | 39.01168 | -8.96388 | 16582 ft | 386 kts | 48° |
| 2026-04-29 11:16 | 39.02956 | -8.93796 | 16932 ft | 389 kts | 48° |
| 2026-04-29 11:16 | 39.04758 | -8.91182 | 17268 ft | 391 kts | 48° |
| 2026-04-29 11:16 | 39.06568 | -8.88555 | 17595 ft | 393 kts | 48° |
| 2026-04-29 11:17 | 39.08385 | -8.85914 | 17911 ft | 396 kts | 48° |
| 2026-04-29 11:17 | 39.10215 | -8.83255 | 18216 ft | 398 kts | 48° |
| 2026-04-29 11:17 | 39.12055 | -8.80580 | 18510 ft | 400 kts | 48° |
| 2026-04-29 11:17 | 39.13906 | -8.77889 | 18801 ft | 402 kts | 49° |
| 2026-04-29 11:18 | 39.15758 | -8.75190 | 19078 ft | 404 kts | 49° |
| 2026-04-29 11:18 | 39.17626 | -8.72469 | 19352 ft | 406 kts | 49° |
| 2026-04-29 11:18 | 39.19498 | -8.69736 | 19618 ft | 408 kts | 49° |
| 2026-04-29 11:18 | 39.21380 | -8.66984 | 19875 ft | 410 kts | 49° |
| 2026-04-29 11:19 | 39.23263 | -8.64227 | 20130 ft | 411 kts | 49° |
| 2026-04-29 11:19 | 39.25161 | -8.61447 | 20372 ft | 413 kts | 49° |
| 2026-04-29 11:19 | 39.27060 | -8.58658 | 20597 ft | 415 kts | 49° |
| 2026-04-29 11:19 | 39.28965 | -8.55854 | 20819 ft | 416 kts | 49° |
| 2026-04-29 11:20 | 39.30879 | -8.53033 | 21037 ft | 418 kts | 49° |
| 2026-04-29 11:20 | 39.32799 | -8.50205 | 21250 ft | 420 kts | 49° |
| 2026-04-29 11:20 | 39.34726 | -8.47370 | 21444 ft | 421 kts | 49° |
| 2026-04-29 11:20 | 39.36661 | -8.44520 | 21641 ft | 423 kts | 49° |
| 2026-04-29 11:21 | 39.38603 | -8.41654 | 21827 ft | 424 kts | 49° |
| 2026-04-29 11:21 | 39.40548 | -8.38780 | 22006 ft | 426 kts | 49° |
| 2026-04-29 11:21 | 39.42501 | -8.35894 | 22182 ft | 427 kts | 49° |
| 2026-04-29 11:21 | 39.44462 | -8.32994 | 22349 ft | 428 kts | 49° |
| 2026-04-29 11:22 | 39.46423 | -8.30087 | 22512 ft | 430 kts | 49° |
| 2026-04-29 11:22 | 39.48389 | -8.27167 | 22664 ft | 431 kts | 49° |
| 2026-04-29 11:22 | 39.50363 | -8.24237 | 22789 ft | 433 kts | 49° |
| 2026-04-29 11:22 | 39.52348 | -8.21296 | 22915 ft | 434 kts | 49° |
| 2026-04-29 11:23 | 39.54341 | -8.18344 | 23040 ft | 436 kts | 49° |
| 2026-04-29 11:23 | 39.56338 | -8.15380 | 23165 ft | 437 kts | 49° |
| 2026-04-29 11:23 | 39.58334 | -8.12408 | 23327 ft | 437 kts | 49° |
| 2026-04-29 11:23 | 39.59653 | -8.10438 | 23428 ft | 437 kts | 49° |
| 2026-04-29 11:24 | 39.61645 | -8.07459 | 23557 ft | 438 kts | 49° |
| 2026-04-29 11:24 | 39.63643 | -8.04469 | 23683 ft | 439 kts | 49° |
| 2026-04-29 11:24 | 39.65646 | -8.01479 | 23807 ft | 439 kts | 48° |
| 2026-04-29 11:24 | 39.67734 | -7.98584 | 23932 ft | 440 kts | 45° |
| 2026-04-29 11:25 | 39.69912 | -7.95801 | 24057 ft | 440 kts | 44° |
| 2026-04-29 11:25 | 39.72146 | -7.93079 | 24233 ft | 439 kts | 43° |
| 2026-04-29 11:25 | 39.74378 | -7.90392 | 24482 ft | 436 kts | 43° |
| 2026-04-29 11:25 | 39.76589 | -7.87710 | 24730 ft | 434 kts | 43° |
| 2026-04-29 11:26 | 39.80937 | -7.82300 | 25070 ft | 433 kts | 44° |
| 2026-04-29 11:26 | 39.83096 | -7.79565 | 25195 ft | 433 kts | 44° |
| 2026-04-29 11:26 | 39.85251 | -7.76822 | 25320 ft | 433 kts | 44° |
| 2026-04-29 11:27 | 39.87401 | -7.74076 | 25444 ft | 434 kts | 44° |
| 2026-04-29 11:27 | 39.89555 | -7.71324 | 25570 ft | 434 kts | 44° |
| 2026-04-29 11:27 | 39.91711 | -7.68576 | 25694 ft | 434 kts | 44° |
| 2026-04-29 11:27 | 39.93870 | -7.65830 | 25819 ft | 434 kts | 44° |
| 2026-04-29 11:28 | 39.96025 | -7.63085 | 25943 ft | 434 kts | 44° |
| 2026-04-29 11:28 | 39.98184 | -7.60336 | 26068 ft | 433 kts | 44° |
| 2026-04-29 11:28 | 40.00340 | -7.57588 | 26192 ft | 433 kts | 44° |
| 2026-04-29 11:28 | 40.02490 | -7.54842 | 26317 ft | 433 kts | 44° |
| 2026-04-29 11:29 | 40.04647 | -7.52090 | 26442 ft | 433 kts | 44° |
| 2026-04-29 11:29 | 40.06797 | -7.49348 | 26567 ft | 433 kts | 44° |
| 2026-04-29 11:29 | 40.08946 | -7.46600 | 26692 ft | 432 kts | 44° |
| 2026-04-29 11:29 | 40.11093 | -7.43850 | 26817 ft | 432 kts | 44° |
| 2026-04-29 11:30 | 40.13236 | -7.41103 | 26941 ft | 432 kts | 44° |
| 2026-04-29 11:30 | 40.15381 | -7.38350 | 27066 ft | 431 kts | 44° |
| 2026-04-29 11:30 | 40.17518 | -7.35603 | 27191 ft | 431 kts | 44° |
| 2026-04-29 11:30 | 40.19654 | -7.32852 | 27316 ft | 431 kts | 44° |
| 2026-04-29 11:31 | 40.21786 | -7.30103 | 27441 ft | 430 kts | 44° |
| 2026-04-29 11:31 | 40.23917 | -7.27353 | 27565 ft | 430 kts | 44° |
| 2026-04-29 11:31 | 40.26048 | -7.24603 | 27690 ft | 430 kts | 44° |
| 2026-04-29 11:31 | 40.28178 | -7.21858 | 27815 ft | 429 kts | 44° |
| 2026-04-29 11:32 | 40.30305 | -7.19118 | 27940 ft | 429 kts | 44° |
| 2026-04-29 11:32 | 40.32428 | -7.16378 | 28065 ft | 429 kts | 44° |
| 2026-04-29 11:32 | 40.34550 | -7.13634 | 28190 ft | 428 kts | 44° |
| 2026-04-29 11:32 | 40.36672 | -7.10892 | 28314 ft | 428 kts | 44° |
| 2026-04-29 11:33 | 40.38789 | -7.08151 | 28439 ft | 428 kts | 45° |
| 2026-04-29 11:33 | 40.40902 | -7.05408 | 28564 ft | 427 kts | 45° |
| 2026-04-29 11:33 | 40.42981 | -7.02701 | 28688 ft | 427 kts | 45° |
| 2026-04-29 11:33 | 40.45082 | -6.99959 | 28812 ft | 426 kts | 45° |
| 2026-04-29 11:34 | 40.47187 | -6.97212 | 28937 ft | 426 kts | 45° |
| 2026-04-29 11:34 | 40.49286 | -6.94474 | 29062 ft | 425 kts | 45° |
| 2026-04-29 11:34 | 40.51388 | -6.91739 | 29187 ft | 425 kts | 45° |
| 2026-04-29 11:34 | 40.53485 | -6.89009 | 29312 ft | 424 kts | 45° |
| 2026-04-29 11:35 | 40.55582 | -6.86278 | 29436 ft | 424 kts | 45° |
| 2026-04-29 11:35 | 40.57673 | -6.83551 | 29561 ft | 423 kts | 45° |
| 2026-04-29 11:35 | 40.59760 | -6.80821 | 29686 ft | 423 kts | 45° |
| 2026-04-29 11:35 | 40.61842 | -6.78091 | 29810 ft | 422 kts | 45° |
| 2026-04-29 11:36 | 40.63921 | -6.75359 | 29936 ft | 422 kts | 45° |
| 2026-04-29 11:36 | 40.65993 | -6.72632 | 30060 ft | 421 kts | 45° |
| 2026-04-29 11:36 | 40.68063 | -6.69905 | 30185 ft | 420 kts | 45° |
| 2026-04-29 11:36 | 40.70131 | -6.67182 | 30310 ft | 420 kts | 45° |
| 2026-04-29 11:37 | 40.72195 | -6.64465 | 30435 ft | 419 kts | 45° |
| 2026-04-29 11:37 | 40.74258 | -6.61752 | 30560 ft | 418 kts | 45° |
| 2026-04-29 11:37 | 40.76318 | -6.59045 | 30684 ft | 418 kts | 45° |
| 2026-04-29 11:37 | 40.78372 | -6.56344 | 30809 ft | 417 kts | 45° |
| 2026-04-29 11:38 | 40.80418 | -6.53644 | 30934 ft | 416 kts | 45° |
| 2026-04-29 11:38 | 40.82459 | -6.50945 | 31058 ft | 415 kts | 45° |
| 2026-04-29 11:38 | 40.84494 | -6.48249 | 31183 ft | 414 kts | 45° |
| 2026-04-29 11:38 | 40.86523 | -6.45559 | 31308 ft | 413 kts | 45° |
| 2026-04-29 11:39 | 40.88546 | -6.42872 | 31433 ft | 412 kts | 45° |
| 2026-04-29 11:39 | 40.90560 | -6.40197 | 31557 ft | 410 kts | 45° |
| 2026-04-29 11:39 | 40.92587 | -6.37507 | 31106 ft | 420 kts | 45° |
| 2026-04-29 11:39 | 40.94661 | -6.34752 | 30978 ft | 425 kts | 45° |
| 2026-04-29 11:40 | 40.98848 | -6.29186 | 31010 ft | 428 kts | 45° |
| 2026-04-29 11:40 | 41.03197 | -6.23748 | 31009 ft | 432 kts | 42° |
| 2026-04-29 11:41 | 41.07693 | -6.18500 | 31009 ft | 435 kts | 41° |
| 2026-04-29 11:41 | 41.12248 | -6.13179 | 31009 ft | 438 kts | 41° |
| 2026-04-29 11:42 | 41.16799 | -6.07755 | 31009 ft | 440 kts | 42° |
| 2026-04-29 11:42 | 41.21355 | -6.02273 | 31009 ft | 443 kts | 42° |
| 2026-04-29 11:43 | 41.25927 | -5.96767 | 31009 ft | 445 kts | 42° |
| 2026-04-29 11:43 | 41.30516 | -5.91240 | 31009 ft | 446 kts | 42° |
| 2026-04-29 11:44 | 41.35130 | -5.85667 | 30388 ft | 454 kts | 42° |
| 2026-04-29 11:44 | 41.37483 | -5.82820 | 30077 ft | 460 kts | 42° |
| 2026-04-29 11:44 | 41.39863 | -5.79936 | 29978 ft | 462 kts | 42° |
| 2026-04-29 11:45 | 41.44610 | -5.74182 | 30009 ft | 461 kts | 42° |
| 2026-04-29 11:45 | 41.49348 | -5.68444 | 30009 ft | 460 kts | 42° |
| 2026-04-29 11:46 | 41.54421 | -5.63284 | 30009 ft | 459 kts | 27° |
| 2026-04-29 11:46 | 41.60279 | -5.59881 | 30009 ft | 459 kts | 22° |
| 2026-04-29 11:47 | 41.66173 | -5.56570 | 30009 ft | 459 kts | 22° |
| 2026-04-29 11:47 | 41.72059 | -5.53243 | 30009 ft | 459 kts | 22° |
| 2026-04-29 11:48 | 41.77946 | -5.49909 | 30009 ft | 459 kts | 22° |
| 2026-04-29 11:48 | 41.83798 | -5.46594 | 30009 ft | 459 kts | 22° |
| 2026-04-29 11:49 | 41.89720 | -5.43226 | 30009 ft | 459 kts | 23° |
| 2026-04-29 11:49 | 41.95599 | -5.39879 | 30009 ft | 459 kts | 23° |
| 2026-04-29 11:50 | 42.01442 | -5.36540 | 30009 ft | 459 kts | 23° |
| 2026-04-29 11:50 | 42.07322 | -5.33173 | 30009 ft | 459 kts | 23° |
| 2026-04-29 11:51 | 42.13201 | -5.29812 | 30009 ft | 459 kts | 23° |
| 2026-04-29 11:51 | 42.19080 | -5.26441 | 30009 ft | 459 kts | 23° |
| 2026-04-29 11:52 | 42.24954 | -5.23057 | 30009 ft | 459 kts | 23° |
| 2026-04-29 11:52 | 42.30823 | -5.19674 | 30009 ft | 459 kts | 23° |
| 2026-04-29 11:53 | 42.36691 | -5.16277 | 30009 ft | 459 kts | 23° |
| 2026-04-29 11:53 | 42.42558 | -5.12879 | 30009 ft | 459 kts | 23° |
| 2026-04-29 11:54 | 42.48436 | -5.09485 | 30009 ft | 459 kts | 23° |
| 2026-04-29 11:54 | 42.54305 | -5.06074 | 30009 ft | 459 kts | 23° |
| 2026-04-29 11:55 | 42.60172 | -5.02655 | 30009 ft | 459 kts | 23° |
| 2026-04-29 11:55 | 42.65999 | -4.99252 | 30009 ft | 459 kts | 23° |
| 2026-04-29 11:56 | 42.71860 | -4.95822 | 30009 ft | 459 kts | 23° |
| 2026-04-29 11:56 | 42.77726 | -4.92383 | 30009 ft | 459 kts | 23° |
| 2026-04-29 11:57 | 42.83583 | -4.88941 | 30009 ft | 459 kts | 23° |
| 2026-04-29 11:57 | 42.89446 | -4.85492 | 30009 ft | 459 kts | 23° |
| 2026-04-29 11:58 | 42.95303 | -4.82040 | 30009 ft | 459 kts | 23° |
| 2026-04-29 11:58 | 43.01160 | -4.78577 | 30008 ft | 458 kts | 23° |
| 2026-04-29 11:59 | 43.07013 | -4.75113 | 30009 ft | 458 kts | 23° |
| 2026-04-29 11:59 | 43.12868 | -4.71638 | 30009 ft | 459 kts | 23° |
| 2026-04-29 12:00 | 43.18720 | -4.68150 | 30008 ft | 459 kts | 23° |
| 2026-04-29 12:00 | 43.24575 | -4.64657 | 30009 ft | 458 kts | 23° |
| 2026-04-29 12:01 | 43.30424 | -4.61163 | 30009 ft | 459 kts | 23° |
| 2026-04-29 12:01 | 43.36276 | -4.57665 | 30008 ft | 458 kts | 23° |
| 2026-04-29 12:02 | 43.42123 | -4.54164 | 30009 ft | 458 kts | 23° |
| 2026-04-29 12:02 | 43.47967 | -4.50651 | 30009 ft | 458 kts | 23° |
| 2026-04-29 12:03 | 43.53810 | -4.47127 | 30009 ft | 458 kts | 23° |
| 2026-04-29 12:03 | 43.59649 | -4.43604 | 30009 ft | 458 kts | 23° |
| 2026-04-29 12:04 | 43.65489 | -4.40075 | 30009 ft | 458 kts | 24° |
| 2026-04-29 12:04 | 43.71316 | -4.36534 | 30009 ft | 458 kts | 24° |
| 2026-04-29 12:05 | 43.77115 | -4.33012 | 30009 ft | 458 kts | 24° |
| 2026-04-29 12:05 | 43.82946 | -4.29466 | 30009 ft | 458 kts | 24° |
| 2026-04-29 12:06 | 43.88814 | -4.25885 | 30009 ft | 458 kts | 24° |
| 2026-04-29 12:06 | 43.94645 | -4.22326 | 30009 ft | 458 kts | 24° |
| 2026-04-29 12:07 | 44.00426 | -4.18786 | 30009 ft | 458 kts | 24° |
| 2026-04-29 12:07 | 44.06254 | -4.15211 | 30009 ft | 458 kts | 24° |
| 2026-04-29 12:08 | 44.12083 | -4.11622 | 30009 ft | 458 kts | 24° |
| 2026-04-29 12:08 | 44.17900 | -4.08035 | 30009 ft | 458 kts | 24° |
| 2026-04-29 12:09 | 44.23724 | -4.04437 | 30009 ft | 458 kts | 24° |
| 2026-04-29 12:09 | 44.29539 | -4.00826 | 30009 ft | 458 kts | 24° |
| 2026-04-29 12:10 | 44.35124 | -3.96604 | 30013 ft | 457 kts | 34° |
| 2026-04-29 12:10 | 44.40365 | -3.91558 | 30009 ft | 458 kts | 34° |
| 2026-04-29 12:11 | 44.45605 | -3.86501 | 30009 ft | 458 kts | 34° |
| 2026-04-29 12:11 | 44.50847 | -3.81440 | 30009 ft | 458 kts | 34° |
| 2026-04-29 12:12 | 44.55204 | -3.77228 | 30011 ft | 458 kts | 34° |
| 2026-04-29 12:12 | 44.60440 | -3.72148 | 30011 ft | 458 kts | 34° |
| 2026-04-29 12:13 | 44.65668 | -3.67056 | 30009 ft | 457 kts | 34° |
| 2026-04-29 12:13 | 44.70889 | -3.61948 | 30009 ft | 457 kts | 35° |
| 2026-04-29 12:14 | 44.76116 | -3.56839 | 30009 ft | 457 kts | 34° |
| 2026-04-29 12:14 | 44.81343 | -3.51736 | 30009 ft | 457 kts | 34° |
| 2026-04-29 12:15 | 44.86560 | -3.46612 | 30010 ft | 457 kts | 35° |
| 2026-04-29 12:15 | 44.91778 | -3.41470 | 30010 ft | 457 kts | 35° |
| 2026-04-29 12:16 | 44.96993 | -3.36335 | 30009 ft | 457 kts | 35° |
| 2026-04-29 12:16 | 45.02201 | -3.31203 | 30009 ft | 456 kts | 35° |
| 2026-04-29 12:17 | 45.07405 | -3.26044 | 30009 ft | 457 kts | 35° |
| 2026-04-29 12:17 | 45.12600 | -3.20873 | 30009 ft | 457 kts | 35° |
| 2026-04-29 12:18 | 45.17767 | -3.15727 | 30009 ft | 457 kts | 35° |
| 2026-04-29 12:18 | 45.22965 | -3.10544 | 30009 ft | 457 kts | 35° |
| 2026-04-29 12:19 | 45.28160 | -3.05353 | 30009 ft | 457 kts | 35° |
| 2026-04-29 12:19 | 45.33346 | -3.00145 | 30009 ft | 456 kts | 35° |
| 2026-04-29 12:20 | 45.38502 | -2.94867 | 30009 ft | 456 kts | 36° |
| 2026-04-29 12:20 | 45.43630 | -2.89541 | 30009 ft | 457 kts | 36° |
| 2026-04-29 12:21 | 45.48759 | -2.84206 | 30009 ft | 456 kts | 36° |
| 2026-04-29 12:21 | 45.53891 | -2.78876 | 30009 ft | 456 kts | 36° |
| 2026-04-29 12:22 | 45.59026 | -2.73566 | 30009 ft | 456 kts | 36° |
| 2026-04-29 12:22 | 45.64091 | -2.68300 | 30009 ft | 456 kts | 36° |
| 2026-04-29 12:23 | 45.69212 | -2.62947 | 30009 ft | 456 kts | 36° |
| 2026-04-29 12:23 | 45.74331 | -2.57578 | 30009 ft | 456 kts | 36° |
| 2026-04-29 12:24 | 45.79445 | -2.52204 | 30007 ft | 456 kts | 36° |
| 2026-04-29 12:24 | 45.84526 | -2.46866 | 30006 ft | 456 kts | 36° |
| 2026-04-29 12:25 | 45.89636 | -2.41487 | 30005 ft | 456 kts | 36° |
| 2026-04-29 12:26 | 45.97292 | -2.33391 | 30009 ft | 456 kts | 36° |
| 2026-04-29 12:26 | 46.02394 | -2.27982 | 30009 ft | 456 kts | 36° |
| 2026-04-29 12:27 | 46.07148 | -2.21993 | 30013 ft | 455 kts | 47° |
| 2026-04-29 12:27 | 46.11459 | -2.15303 | 30009 ft | 455 kts | 47° |
| 2026-04-29 12:28 | 46.15771 | -2.08606 | 30009 ft | 456 kts | 47° |
| 2026-04-29 12:28 | 46.20077 | -2.01901 | 30009 ft | 456 kts | 47° |
| 2026-04-29 12:29 | 46.24378 | -1.95182 | 30009 ft | 456 kts | 47° |
| 2026-04-29 12:29 | 46.28627 | -1.88534 | 30009 ft | 455 kts | 47° |
| 2026-04-29 12:30 | 46.32920 | -1.81799 | 30009 ft | 455 kts | 47° |
| 2026-04-29 12:30 | 46.37204 | -1.75048 | 30009 ft | 455 kts | 47° |
| 2026-04-29 12:31 | 46.41462 | -1.68334 | 30009 ft | 455 kts | 47° |
| 2026-04-29 12:31 | 46.45745 | -1.61569 | 30009 ft | 455 kts | 47° |
| 2026-04-29 12:32 | 46.50020 | -1.54795 | 30009 ft | 455 kts | 47° |
| 2026-04-29 12:32 | 46.54287 | -1.48016 | 30009 ft | 455 kts | 47° |
| 2026-04-29 12:33 | 46.58556 | -1.41222 | 30009 ft | 455 kts | 47° |
| 2026-04-29 12:33 | 46.62814 | -1.34413 | 30009 ft | 455 kts | 48° |
| 2026-04-29 12:34 | 46.67053 | -1.27572 | 30009 ft | 455 kts | 48° |
| 2026-04-29 12:34 | 46.71279 | -1.20723 | 30009 ft | 455 kts | 48° |
| 2026-04-29 12:35 | 46.75511 | -1.13862 | 30009 ft | 455 kts | 48° |
| 2026-04-29 12:35 | 46.79737 | -1.07001 | 30008 ft | 455 kts | 48° |
| 2026-04-29 12:36 | 46.83958 | -1.00135 | 30009 ft | 454 kts | 48° |
| 2026-04-29 12:36 | 46.88180 | -0.93250 | 30009 ft | 455 kts | 48° |
| 2026-04-29 12:37 | 46.92399 | -0.86365 | 30009 ft | 454 kts | 48° |
| 2026-04-29 12:37 | 46.96606 | -0.79465 | 30009 ft | 454 kts | 48° |
| 2026-04-29 12:38 | 47.00808 | -0.72548 | 30009 ft | 454 kts | 48° |
| 2026-04-29 12:38 | 47.05005 | -0.65626 | 30010 ft | 454 kts | 48° |
| 2026-04-29 12:39 | 47.09201 | -0.58688 | 30009 ft | 454 kts | 48° |
| 2026-04-29 12:39 | 47.13368 | -0.51797 | 30009 ft | 454 kts | 49° |
| 2026-04-29 12:40 | 47.17577 | -0.44796 | 30009 ft | 454 kts | 49° |
| 2026-04-29 12:40 | 47.21758 | -0.37836 | 30009 ft | 454 kts | 49° |
| 2026-04-29 12:41 | 47.25995 | -0.30950 | 30009 ft | 454 kts | 46° |
| 2026-04-29 12:41 | 47.30505 | -0.24439 | 30008 ft | 454 kts | 43° |
| 2026-04-29 12:42 | 47.35099 | -0.18061 | 30005 ft | 454 kts | 43° |
| 2026-04-29 12:42 | 47.39614 | -0.11642 | 30002 ft | 453 kts | 44° |
| 2026-04-29 12:43 | 47.44104 | -0.05104 | 30000 ft | 453 kts | 45° |
| 2026-04-29 12:43 | 47.48581 | 0.01452 | 29999 ft | 453 kts | 45° |
| 2026-04-29 12:44 | 47.53068 | 0.08003 | 30010 ft | 453 kts | 44° |
| 2026-04-29 12:44 | 47.57560 | 0.14553 | 30009 ft | 453 kts | 44° |
| 2026-04-29 12:45 | 47.62048 | 0.21130 | 30009 ft | 454 kts | 45° |
| 2026-04-29 12:45 | 47.66521 | 0.27722 | 30009 ft | 453 kts | 45° |
| 2026-04-29 12:46 | 47.70997 | 0.34312 | 30008 ft | 453 kts | 45° |
| 2026-04-29 12:46 | 47.75469 | 0.40913 | 30008 ft | 453 kts | 45° |
| 2026-04-29 12:47 | 47.79932 | 0.47524 | 30009 ft | 453 kts | 45° |
| 2026-04-29 12:47 | 47.84402 | 0.54147 | 30009 ft | 453 kts | 45° |
| 2026-04-29 12:48 | 47.88858 | 0.60770 | 30009 ft | 453 kts | 45° |
| 2026-04-29 12:48 | 47.93311 | 0.67422 | 30008 ft | 453 kts | 45° |
| 2026-04-29 12:49 | 47.97751 | 0.74077 | 30003 ft | 452 kts | 45° |
| 2026-04-29 12:49 | 48.02183 | 0.80731 | 29998 ft | 452 kts | 45° |
| 2026-04-29 12:50 | 48.06617 | 0.87394 | 30009 ft | 453 kts | 45° |
| 2026-04-29 12:50 | 48.11055 | 0.94088 | 30009 ft | 453 kts | 45° |
| 2026-04-29 12:51 | 48.15483 | 1.00788 | 30009 ft | 453 kts | 45° |
| 2026-04-29 12:51 | 48.19913 | 1.07496 | 30009 ft | 453 kts | 45° |
| 2026-04-29 12:52 | 48.24064 | 1.14588 | 30007 ft | 453 kts | 51° |
| 2026-04-29 12:52 | 48.28049 | 1.21898 | 30005 ft | 452 kts | 51° |
| 2026-04-29 12:53 | 48.31999 | 1.29168 | 30003 ft | 452 kts | 51° |
| 2026-04-29 12:53 | 48.35998 | 1.36539 | 30000 ft | 452 kts | 51° |
| 2026-04-29 12:54 | 48.39964 | 1.43865 | 29997 ft | 452 kts | 51° |
| 2026-04-29 12:54 | 48.43897 | 1.51162 | 29997 ft | 452 kts | 51° |
| 2026-04-29 12:55 | 48.47852 | 1.58516 | 29997 ft | 452 kts | 51° |
| 2026-04-29 12:55 | 48.51806 | 1.65883 | 29999 ft | 452 kts | 51° |
| 2026-04-29 12:56 | 48.55761 | 1.73260 | 30001 ft | 452 kts | 51° |
| 2026-04-29 12:56 | 48.59703 | 1.80651 | 30002 ft | 452 kts | 51° |
| 2026-04-29 12:57 | 48.63638 | 1.88060 | 30001 ft | 452 kts | 51° |
| 2026-04-29 12:57 | 48.67574 | 1.95473 | 30001 ft | 452 kts | 51° |
| 2026-04-29 12:58 | 48.71491 | 2.02875 | 30001 ft | 452 kts | 51° |
| 2026-04-29 12:58 | 48.75258 | 2.10494 | 29995 ft | 451 kts | 60° |
| 2026-04-29 12:59 | 48.77774 | 2.19178 | 29998 ft | 451 kts | 68° |
| 2026-04-29 12:59 | 48.80134 | 2.27999 | 29997 ft | 451 kts | 68° |
| 2026-04-29 13:00 | 48.82082 | 2.35329 | 29997 ft | 451 kts | 68° |
| 2026-04-29 13:00 | 48.84417 | 2.44161 | 29997 ft | 451 kts | 68° |
| 2026-04-29 13:01 | 48.86750 | 2.52999 | 29997 ft | 451 kts | 68° |
| 2026-04-29 13:01 | 48.89079 | 2.61842 | 29997 ft | 451 kts | 68° |
| 2026-04-29 13:02 | 48.91397 | 2.70653 | 29998 ft | 451 kts | 68° |
| 2026-04-29 13:02 | 48.93726 | 2.79534 | 29998 ft | 451 kts | 68° |
| 2026-04-29 13:03 | 48.96039 | 2.88399 | 29998 ft | 451 kts | 69° |
| 2026-04-29 13:03 | 48.98334 | 2.97272 | 29999 ft | 451 kts | 69° |
| 2026-04-29 13:04 | 49.00624 | 3.06158 | 30000 ft | 451 kts | 69° |
| 2026-04-29 13:04 | 49.02910 | 3.15045 | 30000 ft | 451 kts | 69° |
| 2026-04-29 13:05 | 49.05189 | 3.23938 | 30001 ft | 451 kts | 69° |
| 2026-04-29 13:05 | 49.07458 | 3.32848 | 30004 ft | 450 kts | 69° |
| 2026-04-29 13:06 | 49.09726 | 3.41758 | 30009 ft | 451 kts | 69° |
| 2026-04-29 13:06 | 49.11988 | 3.50678 | 30009 ft | 451 kts | 69° |
| 2026-04-29 13:07 | 49.14104 | 3.59687 | 30006 ft | 450 kts | 76° |
| 2026-04-29 13:07 | 49.15681 | 3.68949 | 30009 ft | 450 kts | 75° |
| 2026-04-29 13:08 | 49.17269 | 3.78201 | 30006 ft | 450 kts | 75° |
| 2026-04-29 13:08 | 49.18840 | 3.87461 | 30004 ft | 450 kts | 76° |
| 2026-04-29 13:09 | 49.20380 | 3.96671 | 30003 ft | 450 kts | 76° |
| 2026-04-29 13:09 | 49.21920 | 4.05940 | 30001 ft | 450 kts | 76° |
| 2026-04-29 13:10 | 49.23467 | 4.15234 | 30009 ft | 452 kts | 76° |
| 2026-04-29 13:10 | 49.25016 | 4.24573 | 29529 ft | 454 kts | 76° |
| 2026-04-29 13:10 | 49.25785 | 4.29234 | 28487 ft | 449 kts | 76° |
| 2026-04-29 13:11 | 49.26542 | 4.33835 | 27442 ft | 443 kts | 76° |
| 2026-04-29 13:11 | 49.27283 | 4.38371 | 26479 ft | 435 kts | 76° |
| 2026-04-29 13:11 | 49.28002 | 4.42781 | 25974 ft | 418 kts | 76° |
| 2026-04-29 13:11 | 49.28691 | 4.47015 | 25487 ft | 401 kts | 76° |
| 2026-04-29 13:12 | 49.29354 | 4.51077 | 25009 ft | 386 kts | 76° |
| 2026-04-29 13:12 | 49.29992 | 4.54999 | 24532 ft | 374 kts | 76° |
| 2026-04-29 13:12 | 49.30616 | 4.58855 | 24051 ft | 372 kts | 76° |
| 2026-04-29 13:12 | 49.31236 | 4.62700 | 23574 ft | 371 kts | 76° |
| 2026-04-29 13:13 | 49.31852 | 4.66527 | 23098 ft | 369 kts | 76° |
| 2026-04-29 13:13 | 49.32462 | 4.70340 | 22629 ft | 368 kts | 76° |
| 2026-04-29 13:13 | 49.33068 | 4.74144 | 22164 ft | 366 kts | 76° |
| 2026-04-29 13:13 | 49.33670 | 4.77934 | 21704 ft | 365 kts | 76° |
| 2026-04-29 13:14 | 49.34272 | 4.81709 | 21250 ft | 364 kts | 76° |
| 2026-04-29 13:14 | 49.34871 | 4.85469 | 20796 ft | 362 kts | 76° |
| 2026-04-29 13:14 | 49.35466 | 4.89217 | 20346 ft | 361 kts | 76° |
| 2026-04-29 13:14 | 49.36058 | 4.92945 | 19901 ft | 359 kts | 76° |
| 2026-04-29 13:15 | 49.36648 | 4.96663 | 19456 ft | 358 kts | 76° |
| 2026-04-29 13:15 | 49.37235 | 5.00370 | 19013 ft | 356 kts | 77° |
| 2026-04-29 13:15 | 49.37815 | 5.04060 | 18576 ft | 355 kts | 77° |
| 2026-04-29 13:15 | 49.38390 | 5.07736 | 18141 ft | 354 kts | 77° |
| 2026-04-29 13:16 | 49.38962 | 5.11394 | 17695 ft | 353 kts | 76° |
| 2026-04-29 13:16 | 49.39671 | 5.14998 | 17231 ft | 352 kts | 72° |
| 2026-04-29 13:16 | 49.40443 | 5.18570 | 16759 ft | 352 kts | 72° |
| 2026-04-29 13:16 | 49.41219 | 5.22123 | 16304 ft | 351 kts | 71° |
| 2026-04-29 13:17 | 49.41999 | 5.25676 | 15848 ft | 351 kts | 71° |
| 2026-04-29 13:17 | 49.42766 | 5.29173 | 15406 ft | 350 kts | 71° |
| 2026-04-29 13:17 | 49.43538 | 5.32716 | 14954 ft | 349 kts | 72° |
| 2026-04-29 13:17 | 49.44301 | 5.36237 | 14506 ft | 347 kts | 72° |
| 2026-04-29 13:18 | 49.45056 | 5.39762 | 14056 ft | 346 kts | 72° |
| 2026-04-29 13:18 | 49.45808 | 5.43271 | 13608 ft | 345 kts | 72° |
| 2026-04-29 13:18 | 49.46559 | 5.46762 | 13161 ft | 343 kts | 72° |
| 2026-04-29 13:18 | 49.47360 | 5.50205 | 12748 ft | 341 kts | 64° |
| 2026-04-29 13:19 | 49.48707 | 5.53165 | 12283 ft | 339 kts | 43° |
| 2026-04-29 13:19 | 49.50612 | 5.55210 | 11924 ft | 334 kts | 24° |
| 2026-04-29 13:19 | 49.52753 | 5.56389 | 11681 ft | 318 kts | 22° |
| 2026-04-29 13:19 | 49.54522 | 5.58186 | 11535 ft | 296 kts | 46° |
| 2026-04-29 13:20 | 49.55688 | 5.60649 | 11357 ft | 278 kts | 63° |
| 2026-04-29 13:20 | 49.56374 | 5.63366 | 10990 ft | 268 kts | 77° |
| 2026-04-29 13:20 | 49.56783 | 5.66096 | 10666 ft | 258 kts | 77° |
| 2026-04-29 13:20 | 49.57220 | 5.68800 | 9988 ft | 263 kts | 73° |
| 2026-04-29 13:21 | 49.57660 | 5.71544 | 9278 ft | 266 kts | 88° |
| 2026-04-29 13:21 | 49.57331 | 5.74325 | 8575 ft | 267 kts | 117° |
| 2026-04-29 13:21 | 49.56178 | 5.76522 | 7871 ft | 267 kts | 146° |
| 2026-04-29 13:21 | 49.54479 | 5.77635 | 7170 ft | 267 kts | 168° |
| 2026-04-29 13:22 | 49.52711 | 5.78458 | 6456 ft | 267 kts | 149° |
| 2026-04-29 13:22 | 49.51456 | 5.80512 | 5752 ft | 268 kts | 115° |
| 2026-04-29 13:22 | 49.50999 | 5.83273 | 5047 ft | 268 kts | 92° |
| 2026-04-29 13:22 | 49.51233 | 5.86087 | 4345 ft | 268 kts | 72° |
| 2026-04-29 13:23 | 49.51834 | 5.88802 | 3635 ft | 267 kts | 71° |
| 2026-04-29 13:23 | 49.52429 | 5.91524 | 2984 ft | 268 kts | 71° |
| 2026-04-29 13:23 | 49.52992 | 5.94114 | 2808 ft | 242 kts | 72° |
| 2026-04-29 13:23 | 49.53499 | 5.96417 | 2794 ft | 213 kts | 69° |
| 2026-04-29 13:24 | 49.54163 | 5.98359 | 2795 ft | 201 kts | 60° |
| 2026-04-29 13:24 | 49.54857 | 6.00218 | 2801 ft | 202 kts | 60° |
| 2026-04-29 13:24 | 49.55529 | 6.02022 | 2821 ft | 182 kts | 60° |
| 2026-04-29 13:24 | 49.56123 | 6.03619 | 2799 ft | 169 kts | 60° |
| 2026-04-29 13:25 | 49.56716 | 6.05215 | 2797 ft | 173 kts | 60° |
| 2026-04-29 13:25 | 49.57832 | 6.08233 | 2688 ft | 154 kts | 60° |
| 2026-04-29 13:25 | 49.58356 | 6.09642 | 2526 ft | 151 kts | 60° |
| 2026-04-29 13:26 | 49.58873 | 6.11033 | 2315 ft | 149 kts | 60° |
| 2026-04-29 13:26 | 49.59387 | 6.12412 | 2135 ft | 148 kts | 60° |
| 2026-04-29 13:26 | 49.59901 | 6.13786 | 1928 ft | 147 kts | 60° |
| 2026-04-29 13:26 | 49.60410 | 6.15154 | 1731 ft | 147 kts | 60° |
| 2026-04-29 13:27 | 49.60920 | 6.16518 | 1519 ft | 146 kts | 60° |
| 2026-04-29 13:27 | 49.61418 | 6.17858 | 1312 ft | 146 kts | 60° |
| 2026-04-29 13:27 | 49.61921 | 6.19200 | 1173 ft | 139 kts | 60° |
| 2026-04-29 13:27 | 49.62317 | 6.20274 | 1224 ft | 90 kts | 60° |
| 2026-04-29 13:28 | 49.62544 | 6.20882 | 1235 ft | 37 kts | 59° |
| 2026-04-29 13:28 | 49.62661 | 6.21200 | 1233 ft | 37 kts | 60° |
| 2026-04-29 13:28 | 49.62803 | 6.21581 | 1221 ft | 45 kts | 60° |
| 2026-04-29 13:28 | 49.62957 | 6.21994 | 1215 ft | 30 kts | 59° |
| 2026-04-29 13:29 | 49.63063 | 6.22123 | 1216 ft | 10 kts | 336° |
| 2026-04-29 13:29 | 49.63129 | 6.22065 | 1222 ft | 8 kts | 329° |
| 2026-04-29 13:29 | 49.63167 | 6.22029 | 1227 ft | 9 kts | 329° |
| 2026-04-29 13:29 | 49.63162 | 6.21921 | 1227 ft | 13 kts | 244° |
| 2026-04-29 13:30 | 49.63129 | 6.21818 | 1226 ft | 9 kts | 249° |
| 2026-04-29 13:30 | 49.63157 | 6.21760 | 1228 ft | 5 kts | 329° |
| 2026-04-29 13:30 | 49.63177 | 6.21713 | 1228 ft | 7 kts | 256° |
| 2026-04-29 13:30 | 49.63165 | 6.21681 | 1229 ft | 2 kts | 240° |
| 2026-04-29 13:31 | 49.63161 | 6.21671 | 1229 ft | 0 kts | 240° |
| 2026-04-29 13:31 | 49.63160 | 6.21667 | 1229 ft | 1 kts | 240° |
| 2026-04-29 13:31 | 49.63160 | 6.21666 | 1229 ft | 0 kts | 240° |